Main page
METAR-TAF:

METAR-TAF

Airports :

Nador International Airport

Nador, Morocco

latitude: 34-59-20N, longitude: 003-01-42W, elevation: 175 m

Current weather observation

The report was made 13 minutes ago, at 21:00 UTC
Wind 3 kt from the South/Southwest
Temperature 10°C
Humidity 93%
Pressure 1025 hPa
Visibility 10 km or more
no clouds below 1500 m and no cumulonimbus

METAR: GMMW 102100Z 20003KT CAVOK 10/09 Q1025 NOSIG

Time: 22:13 (21:13 UTC)

Forecast

The report was made 4 hours and 13 minutes ago, at 17:00 UTC
Forecast valid from 10 at 18 UTC to 11 at 24 UTC
Wind 2 kt from variable directions
Visibility: 8000 m
Scattered clouds at a height of 2000 ft
Probability 30%
from 10 at 23 UTC to 11 at 06 UTC
Visibility: 2000 m
mist

TAF: GMMW 101700Z 1018/1124 VRB02KT 8000 SCT020 PROB30 1023/1106 2000 BR

Weather observations and forecasts of more than 4000 airports (METAR and TAF reports).

The available stations are represented by yellow and red dots on the map.

Hover mouse over dot to see the name of the station.

Then click to see weather observations and forecasts.

To change the map : click on the green buttons with a black cross to zoom in, on the green button with a dash to zoom out, or on the green arrows for adjacent maps.


METAR-TAF: